createdAt,value
2022-12-08T00:01:30.327Z,1.30
2022-12-08T00:03:59.897Z,1.30
2022-12-08T00:07:00.695Z,1.20
2022-12-08T00:09:38.580Z,1.20
2022-12-08T00:12:10.940Z,1.20
2022-12-08T00:14:42.058Z,1.30
2022-12-08T00:17:12.250Z,1.20
2022-12-08T00:19:40.589Z,1.20
2022-12-08T00:22:09.422Z,1.20
2022-12-08T00:24:39.765Z,1.20
2022-12-08T00:27:09.349Z,1.10
2022-12-08T00:29:36.287Z,1.10
2022-12-08T00:32:03.856Z,1.20
2022-12-08T00:34:32.479Z,1.10
2022-12-08T00:36:59.530Z,1.10
2022-12-08T00:39:26.611Z,1.20
2022-12-08T00:42:11.870Z,1.30
2022-12-08T00:44:40.502Z,1.40
2022-12-08T00:47:07.418Z,1.40
2022-12-08T00:49:34.434Z,1.40
2022-12-08T00:52:01.677Z,1.20
2022-12-08T00:54:28.638Z,1.30
2022-12-08T00:56:55.606Z,1.30
2022-12-08T00:59:22.656Z,1.40
2022-12-08T01:01:49.653Z,1.50
2022-12-08T01:04:19.130Z,1.50
2022-12-08T01:06:46.801Z,1.50
2022-12-08T01:09:16.046Z,1.60
2022-12-08T01:11:44.438Z,1.70
2022-12-08T01:14:12.243Z,1.60
2022-12-08T01:16:41.454Z,1.70
2022-12-08T01:19:11.440Z,1.70
2022-12-08T01:21:39.352Z,1.70
2022-12-08T01:24:07.120Z,1.70
2022-12-08T01:26:34.116Z,1.60
2022-12-08T01:29:01.104Z,1.50
2022-12-08T01:31:28.058Z,1.60
2022-12-08T01:33:55.051Z,1.70
2022-12-08T01:36:29.407Z,1.60
2022-12-08T01:39:01.910Z,1.90
2022-12-08T01:41:32.746Z,2.00
2022-12-08T01:44:04.266Z,2.00
2022-12-08T01:46:33.703Z,1.90
2022-12-08T01:49:30.661Z,1.90
2022-12-08T01:52:11.676Z,1.80
2022-12-08T01:54:55.652Z,1.70
2022-12-08T01:57:31.290Z,1.80
2022-12-08T02:00:07.810Z,1.90
2022-12-08T02:02:50.469Z,1.90
2022-12-08T02:05:19.465Z,2.00
2022-12-08T02:07:48.704Z,2.00
2022-12-08T02:10:22.014Z,1.90
2022-12-08T02:12:51.953Z,1.80
2022-12-08T02:15:19.184Z,1.80
2022-12-08T02:18:05.808Z,2.00
2022-12-08T02:20:41.557Z,1.90
2022-12-08T02:23:17.302Z,1.80
2022-12-08T02:26:17.998Z,1.90
2022-12-08T02:29:15.245Z,1.90
2022-12-08T02:32:30.684Z,1.90
2022-12-08T02:35:18.629Z,1.80
2022-12-08T02:37:53.544Z,1.80
2022-12-08T02:40:42.383Z,1.90
2022-12-08T02:43:20.698Z,2.00
2022-12-08T02:45:56.509Z,1.90
2022-12-08T02:48:23.492Z,2.00
2022-12-08T02:50:50.446Z,1.90
2022-12-08T02:53:17.384Z,1.80
2022-12-08T02:56:08.425Z,1.80
2022-12-08T02:59:12.398Z,1.80
2022-12-08T03:02:25.729Z,1.90
2022-12-08T03:05:03.931Z,1.80
2022-12-08T03:07:45.931Z,1.90
2022-12-08T03:10:37.940Z,2.00
2022-12-08T03:13:13.142Z,1.90
2022-12-08T03:15:42.047Z,1.90
2022-12-08T03:18:13.498Z,2.00
2022-12-08T03:20:42.153Z,1.80
2022-12-08T03:23:14.367Z,1.80
2022-12-08T03:25:58.103Z,1.80
2022-12-08T03:28:25.330Z,2.00
2022-12-08T03:30:56.485Z,2.10
2022-12-08T03:33:31.058Z,2.10
2022-12-08T03:36:00.162Z,2.00
2022-12-08T03:38:27.106Z,1.90
2022-12-08T03:41:12.574Z,1.80
2022-12-08T03:43:39.449Z,1.70
2022-12-08T03:46:06.333Z,1.80
2022-12-08T03:48:33.294Z,1.80
2022-12-08T03:51:00.176Z,1.80
2022-12-08T03:53:27.116Z,1.70
2022-12-08T03:55:54.597Z,1.80
2022-12-08T03:58:21.482Z,1.60
2022-12-08T04:00:48.366Z,1.60
2022-12-08T04:03:15.391Z,1.70
2022-12-08T04:05:42.367Z,1.60
2022-12-08T04:08:09.402Z,1.60
2022-12-08T04:10:36.409Z,1.60
2022-12-08T04:13:03.774Z,1.60
2022-12-08T04:15:30.656Z,1.60
2022-12-08T04:17:57.652Z,1.60
2022-12-08T04:20:24.548Z,1.50
2022-12-08T04:22:52.568Z,1.60
2022-12-08T04:25:19.672Z,1.60
2022-12-08T04:27:46.630Z,1.80
2022-12-08T04:30:13.704Z,1.90
2022-12-08T04:32:44.315Z,1.90
2022-12-08T04:35:14.265Z,2.00
2022-12-08T04:37:41.198Z,1.80
2022-12-08T04:40:08.736Z,1.80
2022-12-08T04:42:35.668Z,1.80
2022-12-08T04:45:02.821Z,1.90
2022-12-08T04:47:29.770Z,1.90
2022-12-08T04:49:56.894Z,1.80
2022-12-08T04:52:24.121Z,1.80
2022-12-08T04:54:51.108Z,1.90
2022-12-08T04:57:17.957Z,1.80
2022-12-08T04:59:44.820Z,1.90
2022-12-08T05:02:11.798Z,1.90
2022-12-08T05:04:39.113Z,1.80
2022-12-08T05:07:06.293Z,1.90
2022-12-08T05:09:33.192Z,1.90
2022-12-08T05:12:00.114Z,2.00
2022-12-08T05:14:27.082Z,1.90
2022-12-08T05:16:54.062Z,1.90
2022-12-08T05:19:21.003Z,1.80
2022-12-08T05:21:47.901Z,1.80
2022-12-08T05:24:14.842Z,1.80
2022-12-08T05:26:41.815Z,1.90
2022-12-08T05:29:08.785Z,1.80
2022-12-08T05:31:35.750Z,1.90
2022-12-08T05:34:03.577Z,2.10
2022-12-08T05:36:30.758Z,2.10
2022-12-08T05:38:58.455Z,2.20
2022-12-08T05:41:25.496Z,2.10
2022-12-08T05:43:52.418Z,2.10
2022-12-08T05:46:19.437Z,2.10
2022-12-08T05:48:46.361Z,2.10
2022-12-08T05:51:24.226Z,2.10
2022-12-08T05:53:52.569Z,2.00
2022-12-08T05:56:20.840Z,2.10
2022-12-08T05:58:49.316Z,2.10
2022-12-08T06:01:34.594Z,2.10
2022-12-08T06:04:04.048Z,2.20
2022-12-08T06:06:31.714Z,2.10
2022-12-08T06:08:58.761Z,2.10
2022-12-08T06:11:29.331Z,2.20
2022-12-08T06:13:57.293Z,2.10
2022-12-08T06:16:26.272Z,2.10
2022-12-08T06:18:54.160Z,2.40
2022-12-08T06:21:21.469Z,2.40
2022-12-08T06:23:53.603Z,2.20
2022-12-08T06:26:21.063Z,2.30
2022-12-08T06:28:49.405Z,2.30
2022-12-08T06:31:25.645Z,2.40
2022-12-08T06:33:53.845Z,2.30
2022-12-08T06:36:25.229Z,2.20
2022-12-08T06:38:53.162Z,2.30
2022-12-08T06:41:20.819Z,2.30
2022-12-08T06:43:47.905Z,2.30
2022-12-08T06:46:19.569Z,2.30
2022-12-08T06:48:47.134Z,2.30
2022-12-08T06:51:20.705Z,2.20
2022-12-08T06:53:47.721Z,2.30
2022-12-08T06:56:15.965Z,2.20
2022-12-08T06:58:49.035Z,2.40
2022-12-08T07:01:19.036Z,2.30
2022-12-08T07:03:46.350Z,2.30
2022-12-08T07:06:16.886Z,2.40
2022-12-08T07:08:43.933Z,2.50
2022-12-08T07:11:14.213Z,2.50
2022-12-08T07:13:42.337Z,2.50
2022-12-08T07:16:11.616Z,2.50
2022-12-08T07:18:39.573Z,2.50
2022-12-08T07:21:10.038Z,2.60
2022-12-08T07:23:37.960Z,2.80
2022-12-08T07:26:08.392Z,2.60
2022-12-08T07:28:37.806Z,2.50
2022-12-08T07:31:05.724Z,2.60
2022-12-08T07:33:35.947Z,2.60
2022-12-08T07:36:05.794Z,2.50
2022-12-08T07:38:33.348Z,2.50
2022-12-08T07:41:00.867Z,2.70
2022-12-08T07:43:27.989Z,2.70
2022-12-08T07:45:55.063Z,2.70
2022-12-08T07:48:22.228Z,2.60
2022-12-08T07:50:49.187Z,2.70
2022-12-08T07:53:16.058Z,2.50
2022-12-08T07:55:44.016Z,2.60
2022-12-08T07:58:11.375Z,2.60
2022-12-08T08:00:38.407Z,2.70
2022-12-08T08:03:06.210Z,2.70
2022-12-08T08:05:33.239Z,2.70
2022-12-08T08:08:00.291Z,2.70
2022-12-08T08:10:27.315Z,2.80
2022-12-08T08:12:54.268Z,2.80
2022-12-08T08:15:21.431Z,2.80
2022-12-08T08:17:52.339Z,2.80
2022-12-08T08:20:21.046Z,2.90
2022-12-08T08:22:50.381Z,2.80
2022-12-08T08:25:19.509Z,2.70
2022-12-08T08:27:46.849Z,2.70
2022-12-08T08:30:19.938Z,3.00
2022-12-08T08:32:49.028Z,2.80
2022-12-08T08:35:16.669Z,2.80
2022-12-08T08:37:48.500Z,2.90
2022-12-08T08:40:17.670Z,2.80
2022-12-08T08:42:44.811Z,2.70
2022-12-08T08:45:12.097Z,2.90
2022-12-08T08:47:38.987Z,2.90
2022-12-08T08:50:07.106Z,2.90
2022-12-08T08:52:34.490Z,3.00
2022-12-08T08:55:01.491Z,3.10
2022-12-08T08:57:28.433Z,3.10
2022-12-08T08:59:55.371Z,3.10
2022-12-08T09:02:22.629Z,3.10
2022-12-08T09:04:49.646Z,3.10
2022-12-08T09:07:16.721Z,3.10
2022-12-08T09:09:43.762Z,3.10
2022-12-08T09:12:11.528Z,3.10
2022-12-08T09:14:38.781Z,3.20
2022-12-08T09:17:08.654Z,3.10
2022-12-08T09:19:35.850Z,3.20
2022-12-08T09:22:02.741Z,3.30
2022-12-08T09:24:29.578Z,3.30
2022-12-08T09:26:56.710Z,3.40
2022-12-08T09:29:24.686Z,3.40
2022-12-08T09:31:51.730Z,3.40
2022-12-08T09:34:18.684Z,3.40
2022-12-08T09:36:45.691Z,3.40
2022-12-08T09:39:12.699Z,3.50
2022-12-08T09:41:48.228Z,3.60
2022-12-08T09:44:40.123Z,3.60
2022-12-08T09:47:36.393Z,3.60
2022-12-08T09:50:41.248Z,3.60
2022-12-08T09:53:18.792Z,3.70
2022-12-08T09:56:17.854Z,3.60
2022-12-08T09:58:58.626Z,3.60
2022-12-08T10:01:38.232Z,3.70
2022-12-08T10:04:18.947Z,3.90
2022-12-08T10:07:13.503Z,4.00
2022-12-08T10:09:59.752Z,3.80
2022-12-08T10:13:17.149Z,3.80
2022-12-08T10:16:22.020Z,3.80
2022-12-08T10:19:22.779Z,3.70
2022-12-08T10:21:50.797Z,3.80
2022-12-08T10:24:40.895Z,3.80
2022-12-08T10:27:12.532Z,3.80
2022-12-08T10:29:41.436Z,3.80
2022-12-08T10:32:22.839Z,3.70
2022-12-08T10:35:10.907Z,4.00
2022-12-08T10:37:38.574Z,4.10
2022-12-08T10:40:17.964Z,4.10
2022-12-08T10:42:52.822Z,4.00
2022-12-08T10:45:45.222Z,4.00
2022-12-08T10:48:26.606Z,4.10
2022-12-08T10:50:57.579Z,4.10
2022-12-08T10:53:32.618Z,4.20
2022-12-08T10:56:02.495Z,4.00
2022-12-08T10:58:40.679Z,3.90
2022-12-08T11:01:25.771Z,3.90
2022-12-08T11:04:04.521Z,3.90
2022-12-08T11:06:32.872Z,3.80
2022-12-08T11:09:16.037Z,3.90
2022-12-08T11:11:58.910Z,4.00
2022-12-08T11:14:42.372Z,4.00
2022-12-08T11:17:22.821Z,4.10
2022-12-08T11:20:22.069Z,4.30
2022-12-08T11:22:55.542Z,4.30
2022-12-08T11:25:29.244Z,4.20
2022-12-08T11:28:01.945Z,4.20
2022-12-08T11:30:39.729Z,4.40
2022-12-08T11:33:24.315Z,4.30
2022-12-08T11:36:05.773Z,4.30
2022-12-08T11:38:35.301Z,4.40
2022-12-08T11:41:16.155Z,4.50
2022-12-08T11:44:03.722Z,4.50
2022-12-08T11:47:07.018Z,4.60
2022-12-08T11:49:39.536Z,4.80
2022-12-08T11:52:22.763Z,4.80
2022-12-08T11:55:26.470Z,4.70
2022-12-08T11:57:55.024Z,4.80
2022-12-08T12:00:22.151Z,4.90
2022-12-08T12:03:05.190Z,4.80
2022-12-08T12:06:13.030Z,4.90
2022-12-08T12:08:59.258Z,4.90
2022-12-08T12:12:16.752Z,4.90
2022-12-08T12:15:25.315Z,5.10
2022-12-08T12:18:16.490Z,5.20
2022-12-08T12:20:59.402Z,5.10
2022-12-08T12:23:51.783Z,5.00
2022-12-08T12:26:32.356Z,5.00
2022-12-08T12:29:16.399Z,5.10
2022-12-08T12:31:49.446Z,5.30
2022-12-08T12:34:38.938Z,5.30
2022-12-08T12:37:13.241Z,5.40
2022-12-08T12:40:04.212Z,5.40
2022-12-08T12:43:09.667Z,5.50
2022-12-08T12:45:43.789Z,5.70
2022-12-08T12:48:22.935Z,5.80
2022-12-08T12:50:52.210Z,5.90
2022-12-08T12:53:19.047Z,5.70
2022-12-08T12:55:46.027Z,5.60
2022-12-08T12:58:27.907Z,5.60
2022-12-08T13:01:21.157Z,5.70
2022-12-08T13:03:52.297Z,5.30
2022-12-08T13:06:43.711Z,5.20
2022-12-08T13:09:31.974Z,5.30
2022-12-08T13:12:18.300Z,5.20
2022-12-08T13:14:49.634Z,5.30
2022-12-08T13:17:38.531Z,5.20
2022-12-08T13:20:07.925Z,5.00
2022-12-08T13:23:02.956Z,5.10
2022-12-08T13:25:47.781Z,5.20
2022-12-08T13:28:37.692Z,5.20
2022-12-08T13:31:49.800Z,5.20
2022-12-08T13:34:45.432Z,5.10
2022-12-08T13:37:12.292Z,5.30
2022-12-08T13:40:14.563Z,5.30
2022-12-08T13:43:15.544Z,5.30
2022-12-08T13:47:02.867Z,5.40
2022-12-08T13:55:25.845Z,5.30
2022-12-08T13:57:29.977Z,5.30
2022-12-08T14:00:04.313Z,5.50
2022-12-08T14:02:40.809Z,5.50
2022-12-08T14:05:18.506Z,5.30
2022-12-08T14:07:50.005Z,5.20
2022-12-08T14:10:24.128Z,5.10
2022-12-08T14:13:00.919Z,5.00
2022-12-08T14:15:31.383Z,5.00
2022-12-08T14:18:02.594Z,5.00
2022-12-08T14:20:46.482Z,5.10
2022-12-08T14:23:20.017Z,5.30
2022-12-08T14:25:48.379Z,5.20
2022-12-08T14:28:15.385Z,5.00
2022-12-08T14:30:42.753Z,5.20
2022-12-08T14:33:17.083Z,5.10
2022-12-08T14:35:52.064Z,4.90
2022-12-08T14:38:21.260Z,4.80
2022-12-08T14:41:06.681Z,4.80
2022-12-08T14:43:33.897Z,5.00
2022-12-08T14:46:06.147Z,5.00
2022-12-08T14:48:53.344Z,5.00
2022-12-08T14:51:27.321Z,4.70
2022-12-08T14:53:58.993Z,4.70
2022-12-08T14:56:42.321Z,4.70
2022-12-08T14:59:25.255Z,4.80
2022-12-08T15:02:09.565Z,4.60
2022-12-08T15:04:39.572Z,4.60
2022-12-08T15:07:19.541Z,4.70
2022-12-08T15:09:50.213Z,5.00
2022-12-08T15:12:27.693Z,4.80
2022-12-08T15:15:08.467Z,4.80
2022-12-08T15:17:42.237Z,4.80
2022-12-08T15:20:43.130Z,4.50
2022-12-08T15:23:42.458Z,4.50
2022-12-08T15:26:18.567Z,4.40
2022-12-08T15:28:45.570Z,4.50
2022-12-08T15:31:12.505Z,4.40
2022-12-08T15:33:39.487Z,4.30
2022-12-08T15:36:06.727Z,4.30
2022-12-08T15:38:34.087Z,4.20
2022-12-08T15:41:01.106Z,4.10
2022-12-08T15:43:28.629Z,4.10
2022-12-08T15:46:00.267Z,4.00
2022-12-08T15:48:30.829Z,4.00
2022-12-08T15:50:58.403Z,4.10
2022-12-08T15:53:25.676Z,3.90
2022-12-08T15:56:25.664Z,4.10
2022-12-08T15:58:56.505Z,4.10
2022-12-08T16:01:24.959Z,4.00
2022-12-08T16:09:41.771Z,4.20
2022-12-08T16:13:40.504Z,4.10
2022-12-08T16:18:23.882Z,3.90
2022-12-08T16:21:12.427Z,3.90
2022-12-08T16:23:45.667Z,3.90
2022-12-08T16:27:01.201Z,3.80
2022-12-08T16:29:08.174Z,3.80
2022-12-08T16:31:35.207Z,4.10
2022-12-08T16:34:02.306Z,4.00
2022-12-08T16:36:29.218Z,3.90
2022-12-08T16:38:56.125Z,3.90
2022-12-08T16:41:41.533Z,3.80
2022-12-08T16:44:08.399Z,3.80
2022-12-08T16:46:36.042Z,3.80
2022-12-08T16:49:08.405Z,3.90
2022-12-08T16:51:35.345Z,4.30
2022-12-08T16:54:02.306Z,4.10
2022-12-08T16:56:33.020Z,3.90
2022-12-08T16:59:02.039Z,3.80
2022-12-08T17:01:29.382Z,3.90
2022-12-08T17:04:29.141Z,4.00
2022-12-08T17:06:43.268Z,3.80
2022-12-08T17:09:10.118Z,3.70
2022-12-08T17:11:42.598Z,3.60
2022-12-08T17:14:12.856Z,3.60
2022-12-08T17:16:40.832Z,3.70
2022-12-08T17:19:07.929Z,3.70
2022-12-08T17:21:35.087Z,3.70
2022-12-08T17:24:02.013Z,3.80
2022-12-08T17:26:28.974Z,3.90
2022-12-08T17:29:01.011Z,4.10
2022-12-08T17:31:31.229Z,4.20
2022-12-08T17:34:04.479Z,4.00
2022-12-08T17:36:31.973Z,3.70
2022-12-08T17:39:00.662Z,3.70
2022-12-08T17:41:28.660Z,3.70
2022-12-08T17:43:56.092Z,3.70
2022-12-08T17:46:23.497Z,3.70
2022-12-08T17:48:50.659Z,3.60
2022-12-08T17:51:17.945Z,3.70
2022-12-08T17:53:45.030Z,3.60
2022-12-08T17:56:20.111Z,3.60
2022-12-08T17:58:52.826Z,3.50
2022-12-08T18:01:23.136Z,3.50
2022-12-08T18:03:50.869Z,3.60
2022-12-08T18:06:17.919Z,3.50
2022-12-08T18:08:45.201Z,3.50
2022-12-08T18:11:16.500Z,3.50
2022-12-08T18:13:43.911Z,3.60
2022-12-08T18:16:12.391Z,3.60
2022-12-08T18:18:39.632Z,3.70
2022-12-08T18:21:07.380Z,3.60
2022-12-08T18:23:37.487Z,3.50
2022-12-08T18:26:06.554Z,3.60
2022-12-08T18:28:33.961Z,3.60
2022-12-08T18:31:01.253Z,3.70
2022-12-08T18:33:28.244Z,3.60
2022-12-08T18:35:55.205Z,3.60
2022-12-08T18:38:22.134Z,3.50
2022-12-08T18:40:48.987Z,3.60
2022-12-08T18:43:15.882Z,3.60
2022-12-08T18:45:42.814Z,3.60
2022-12-08T18:48:09.759Z,3.60
2022-12-08T18:50:36.873Z,3.50
2022-12-08T18:53:03.855Z,3.60
2022-12-08T18:55:30.866Z,3.50
2022-12-08T18:57:57.786Z,3.50
2022-12-08T19:00:24.833Z,3.60
2022-12-08T19:02:51.924Z,3.50
2022-12-08T19:05:19.035Z,3.50
2022-12-08T19:07:46.502Z,3.50
2022-12-08T19:10:13.486Z,3.50
2022-12-08T19:12:40.750Z,3.50
2022-12-08T19:15:09.002Z,3.70
2022-12-08T19:17:36.206Z,3.60
2022-12-08T19:20:05.895Z,3.50
2022-12-08T19:22:33.013Z,3.50
2022-12-08T19:25:00.119Z,3.50
2022-12-08T19:27:28.052Z,3.40
2022-12-08T19:29:55.893Z,3.40
2022-12-08T19:32:22.810Z,3.40
2022-12-08T19:34:49.669Z,3.40
2022-12-08T19:37:16.573Z,3.40
2022-12-08T19:40:01.842Z,3.50
2022-12-08T19:42:47.136Z,3.40
2022-12-08T19:45:21.657Z,3.40
2022-12-08T19:47:48.954Z,3.30
2022-12-08T19:50:35.753Z,3.40
2022-12-08T19:53:14.641Z,3.50
2022-12-08T19:55:43.146Z,3.40
2022-12-08T19:58:10.697Z,3.40
2022-12-08T20:00:42.870Z,3.30
2022-12-08T20:03:14.989Z,3.30
2022-12-08T20:05:43.487Z,3.40
2022-12-08T20:08:10.803Z,3.30
2022-12-08T20:10:41.491Z,3.40
2022-12-08T20:13:29.189Z,3.30
2022-12-08T20:15:56.761Z,3.20
2022-12-08T20:18:24.426Z,3.20
2022-12-08T20:20:51.971Z,3.30
2022-12-08T20:23:19.026Z,3.40
2022-12-08T20:25:47.522Z,3.40
2022-12-08T20:28:15.020Z,3.40
2022-12-08T20:30:44.154Z,3.30
2022-12-08T20:33:13.954Z,3.30
2022-12-08T20:35:41.030Z,3.20
2022-12-08T20:38:08.292Z,3.20
2022-12-08T20:40:35.462Z,3.10
2022-12-08T20:43:02.500Z,3.20
2022-12-08T20:45:29.553Z,3.20
2022-12-08T20:47:56.547Z,3.20
2022-12-08T20:50:23.611Z,3.20
2022-12-08T20:52:50.674Z,3.10
2022-12-08T20:55:17.750Z,3.10
2022-12-08T20:57:44.997Z,3.20
2022-12-08T21:00:12.916Z,3.20
2022-12-08T21:02:48.528Z,3.10
2022-12-08T21:05:18.227Z,3.10
2022-12-08T21:07:45.431Z,3.00
2022-12-08T21:10:12.682Z,3.00
2022-12-08T21:12:39.713Z,3.00
2022-12-08T21:15:07.753Z,3.00
2022-12-08T21:17:34.924Z,3.00
2022-12-08T21:20:02.203Z,3.00
2022-12-08T21:22:30.022Z,3.00
2022-12-08T21:24:57.013Z,2.90
2022-12-08T21:27:24.042Z,2.90
2022-12-08T21:29:50.961Z,2.90
2022-12-08T21:32:17.917Z,2.90
2022-12-08T21:34:45.582Z,2.90
2022-12-08T21:37:12.693Z,2.90
2022-12-08T21:39:39.751Z,2.90
2022-12-08T21:42:29.343Z,2.80
2022-12-08T21:45:01.047Z,2.70
2022-12-08T21:47:28.500Z,2.90
2022-12-08T21:49:55.489Z,2.80
2022-12-08T21:52:22.710Z,2.80
2022-12-08T21:54:49.747Z,2.80
2022-12-08T21:57:16.758Z,2.80
2022-12-08T21:59:43.818Z,2.90
2022-12-08T22:02:20.855Z,2.90
2022-12-08T22:04:50.050Z,3.10
2022-12-08T22:07:17.426Z,2.80
2022-12-08T22:09:44.642Z,2.80
2022-12-08T22:12:16.451Z,2.80
2022-12-08T22:14:44.080Z,2.80
2022-12-08T22:17:11.517Z,2.90
2022-12-08T22:19:38.806Z,2.80
2022-12-08T22:22:05.944Z,2.80
2022-12-08T22:24:32.889Z,2.90
2022-12-08T22:26:59.928Z,2.80
2022-12-08T22:29:26.983Z,2.90
2022-12-08T22:31:54.058Z,2.80
2022-12-08T22:34:21.142Z,2.70
2022-12-08T22:36:49.033Z,2.70
2022-12-08T22:39:16.104Z,2.70
2022-12-08T22:41:43.045Z,2.90
2022-12-08T22:44:10.291Z,3.20
2022-12-08T22:46:37.908Z,3.30
2022-12-08T22:49:04.820Z,3.30
2022-12-08T22:51:31.724Z,3.10
2022-12-08T22:53:58.563Z,3.00
2022-12-08T22:56:25.432Z,3.00
2022-12-08T22:58:52.435Z,2.80
2022-12-08T23:01:29.982Z,2.70
2022-12-08T23:03:58.620Z,2.70
2022-12-08T23:06:27.357Z,2.60
2022-12-08T23:08:54.827Z,2.60
2022-12-08T23:11:25.289Z,2.50
2022-12-08T23:13:52.322Z,2.70
2022-12-08T23:16:19.251Z,2.70
2022-12-08T23:18:46.552Z,2.80
2022-12-08T23:21:17.694Z,2.60
2022-12-08T23:23:44.745Z,2.50
2022-12-08T23:26:33.340Z,2.30
2022-12-08T23:29:00.792Z,2.30
2022-12-08T23:31:28.421Z,2.30
2022-12-08T23:33:55.558Z,2.10
2022-12-08T23:36:26.244Z,2.20
2022-12-08T23:38:54.797Z,2.20
2022-12-08T23:41:22.094Z,2.20
2022-12-08T23:43:52.428Z,2.40
2022-12-08T23:46:22.631Z,2.30
2022-12-08T23:48:50.974Z,2.30
2022-12-08T23:51:19.019Z,2.30
2022-12-08T23:53:46.869Z,2.30
2022-12-08T23:56:16.832Z,2.30
2022-12-08T23:58:44.533Z,2.20
